63AR weather

Stokes Airport
Earle, Arkansas, United States

Public forecast

Using degrees Fahrenheit for public forecast. Weather courtesy of forecast.io.

METAR (pilot weather report)

Closest report is West Memphis Municipal Airport, 13.0 nm (24.1 km) ESE. Retrieved 2019/06/19 08:53 UTC (19 minutes ago):

KAWM 190853Z AUTO 21005KT 6SM BR CLR 23/23 A2979 RMK AO2 SLP081 T02330228 58014

TAF (pilot weather forecast)

Closest forecast is Memphis International Airport, 26.8 nm (49.6 km) ESE. Retrieved 2019/06/19 06:34 UTC (3 hours ago):

TAF KMEM 190531Z 1906/2012 19006KT P6SM FEW035 BKN090 TEMPO 1910/1913 5SM BR SCT035 FM191600 22012G18KT P6SM VCSH SCT040 BKN150 FM200000 20012G18KT P6SM VCTS SCT045CB BKN120 TEMPO 2003/2007 VRB15G30KT 1SM +TSRA OVC030CB